Time;durP1;ratioP1;P1;durP2;ratioP2;P2;SDS_P1;SDS_P2;PMS_P1;PMS_P2;Temp;Humidity;BMP_temperature;BMP_pressure;BME280_temperature;BME280_humidity;BME280_pressure;Samples;Min_cycle;Max_cycle;Signal;HPM_P1;HPM_P2
2023/07/17 00:00:55;;;;;;;;;;;;;;;-140.72;30.43;52498.41;5078812;28;20347;-70
2023/07/17 00:03:24;;;;;;;;;;;;;;;-140.72;29.21;52575.50;5087258;28;19919;-71
2023/07/17 00:05:52;;;;;;;;;;;;;;;-140.72;31.85;52539.00;5092036;28;20348;-71
2023/07/17 00:08:18;;;;;;;;;;;;;;;-140.72;34.97;52528.84;5082594;28;19916;-71
2023/07/17 00:10:43;;;;;;;;;;;;;;;-140.72;36.33;52549.13;5084854;28;19969;-71
2023/07/17 00:13:09;;;;;;;;;;;;;;;-140.72;32.67;52486.22;5094061;28;19959;-71
2023/07/17 00:15:34;;;;;;;;;;;;;;;-140.72;25.79;52536.97;5075364;28;19924;-71
2023/07/17 00:17:59;;;;;;;;;;;;;;;-140.72;23.05;52504.50;5097165;28;19920;-72
2023/07/17 00:20:24;;;;;;;;;;;;;;;-140.72;21.48;52557.25;5085207;28;19917;-71
2023/07/17 00:22:50;;;;;;;;;;;;;;;-140.72;24.25;52541.03;5084305;28;19916;-71
2023/07/17 00:25:15;;;;;;;;;;;;;;;-140.72;24.13;52547.09;5093333;28;19921;-71
2023/07/17 00:27:40;;;;;;;;;;;;;;;-140.72;30.77;52559.28;5093509;28;20046;-71
2023/07/17 00:30:05;;;;;;;;;;;;;;;-140.72;37.68;52583.63;5093192;28;19920;-71
2023/07/17 00:32:36;;;;;;;;;;;;;;;-140.72;40.75;52547.09;5080000;28;19931;-71
2023/07/17 00:35:02;;;;;;;;;;;;;;;-140.72;38.11;52522.75;5067786;28;19917;-71
2023/07/17 00:37:27;;;;;;;;;;;;;;;-140.72;34.46;52557.25;5085867;28;19926;-71
2023/07/17 00:39:54;;;;;;;;;;;;;;;-140.72;34.73;52518.69;5060438;28;19955;-71
2023/07/17 00:42:19;;;;;;;;;;;;;;;-140.72;34.02;52549.13;5075101;28;19966;-72
2023/07/17 00:44:44;;;;;;;;;;;;;;;-140.72;35.56;52528.84;5090160;28;20300;-72
2023/07/17 00:47:10;;;;;;;;;;;;;;;-140.72;33.11;52557.25;5083932;28;19921;-71
2023/07/17 00:49:35;;;;;;;;;;;;;;;-140.72;34.65;52545.06;5076815;28;19928;-72
2023/07/17 00:52:01;;;;;;;;;;;;;;;-140.72;35.76;52536.97;5084195;28;20339;-72
2023/07/17 00:54:27;;;;;;;;;;;;;;;-140.72;39.00;52520.72;5081628;28;19966;-72
2023/07/17 00:56:55;;;;;;;;;;;;;;;-140.72;42.94;52618.13;5084386;28;20426;-72
2023/07/17 00:59:20;;;;;;;;;;;;;;;-140.72;49.19;52553.19;5087447;28;19920;-72
2023/07/17 01:02:04;;;;;;;;;;;;;;;-140.72;52.13;52575.50;5095696;28;19927;-72
2023/07/17 01:04:30;;;;;;;;;;;;;;;-140.72;54.70;52559.28;5085185;28;19998;-72
2023/07/17 01:06:55;;;;;;;;;;;;;;;-140.72;53.95;52532.91;5081965;28;19966;-73
2023/07/17 01:09:21;;;;;;;;;;;;;;;-140.72;53.23;52553.19;5092980;28;19930;-72
2023/07/17 01:11:46;;;;;;;;;;;;;;;-140.72;56.83;52541.03;5084024;28;20002;-72
2023/07/17 01:14:16;;;;;;;;;;;;;;;-140.72;59.47;52557.25;5068225;28;20046;-72
2023/07/17 01:16:41;;;;;;;;;;;;;;;-140.72;61.60;52569.44;5079667;28;19920;-72
2023/07/17 01:19:07;;;;;;;;;;;;;;;-140.72;61.47;52575.50;5087702;28;20071;-72
2023/07/17 01:21:34;;;;;;;;;;;;;;;-140.72;56.92;52587.69;5091105;28;19920;-71
2023/07/17 01:23:59;;;;;;;;;;;;;;;-140.72;57.71;52532.91;5093858;28;20368;-72
2023/07/17 01:26:25;;;;;;;;;;;;;;;-140.72;61.79;52607.97;5082453;28;19947;-72
2023/07/17 01:28:50;;;;;;;;;;;;;;;-140.72;62.50;52557.25;5088088;28;19923;-72
2023/07/17 01:31:15;;;;;;;;;;;;;;;-140.72;65.36;52530.88;5093889;28;19926;-72
2023/07/17 01:33:41;;;;;;;;;;;;;;;-140.72;70.03;52577.53;5086285;28;19950;-72
2023/07/17 01:36:07;;;;;;;;;;;;;;;-140.72;78.13;52559.28;5058396;28;19927;-72
2023/07/17 01:38:33;;;;;;;;;;;;;;;-140.72;81.88;52577.53;5080574;28;19916;-72
2023/07/17 01:40:59;;;;;;;;;;;;;;;-140.72;79.82;52539.00;5091619;28;19924;-72
2023/07/17 01:43:30;;;;;;;;;;;;;;;-140.72;81.71;52595.81;5087501;28;19943;-71
2023/07/17 01:45:55;;;;;;;;;;;;;;;-140.72;85.71;52555.22;5086634;28;19917;-72
2023/07/17 01:48:21;;;;;;;;;;;;;;;-140.72;91.79;52575.50;5091131;28;19924;-72
2023/07/17 01:50:46;;;;;;;;;;;;;;;-140.72;94.84;52514.63;5085397;28;20002;-72
2023/07/17 01:53:12;;;;;;;;;;;;;;;-140.72;95.20;52575.50;5084530;28;19927;-71
2023/07/17 01:55:37;;;;;;;;;;;;;;;-140.72;93.01;52573.50;5088175;28;19920;-71
2023/07/17 01:58:03;;;;;;;;;;;;;;;-140.72;88.32;52541.03;5074255;28;19928;-71
2023/07/17 02:00:28;;;;;;;;;;;;;;;-140.72;83.71;52601.91;5087995;28;19924;-72
2023/07/17 02:02:53;;;;;;;;;;;;;;;-140.72;81.56;52557.25;5087851;28;20365;-72
2023/07/17 02:05:20;;;;;;;;;;;;;;;-140.72;83.08;52575.50;5081247;28;20430;-72
2023/07/17 02:07:45;;;;;;;;;;;;;;;-140.72;85.79;52545.06;5078105;28;19920;-72
2023/07/17 02:10:11;;;;;;;;;;;;;;;-140.72;92.12;52567.41;5087528;28;20011;-72
2023/07/17 02:12:37;;;;;;;;;;;;;;;-140.72;99.62;52565.38;5085106;28;19916;-72
2023/07/17 02:15:02;;;;;;;;;;;;;;;-140.72;100.00;52591.75;5077079;28;19921;-71
2023/07/17 02:17:31;;;;;;;;;;;;;;;-140.72;100.00;52587.69;5076819;28;19925;-71
2023/07/17 02:19:58;;;;;;;;;;;;;;;-140.72;100.00;52587.69;5067224;28;19938;-71
2023/07/17 02:22:23;;;;;;;;;;;;;;;-140.72;100.00;52553.19;5072156;28;19924;-71
2023/07/17 02:24:48;;;;;;;;;;;;;;;-140.72;100.00;52571.47;5072028;28;19924;-71
2023/07/17 02:27:16;;;;;;;;;;;;;;;-140.72;100.00;52551.16;5073774;28;19923;-71
2023/07/17 02:29:41;;;;;;;;;;;;;;;-140.72;100.00;52569.44;5089451;28;19916;-72
2023/07/17 02:32:06;;;;;;;;;;;;;;;-140.72;100.00;52551.16;5078060;28;19916;-71
2023/07/17 02:34:31;;;;;;;;;;;;;;;-140.72;100.00;52591.75;5080901;28;20027;-71
2023/07/17 02:36:57;;;;;;;;;;;;;;;-140.72;100.00;52557.25;5078613;28;19916;-71
2023/07/17 02:39:22;;;;;;;;;;;;;;;-140.72;100.00;52551.16;5092151;28;19916;-71
2023/07/17 02:41:47;;;;;;;;;;;;;;;-140.72;100.00;52589.72;5085393;28;20311;-72
2023/07/17 02:44:13;;;;;;;;;;;;;;;-140.72;100.00;52567.41;5083222;28;19924;-71
2023/07/17 02:46:38;;;;;;;;;;;;;;;-140.72;100.00;52595.81;5080258;28;20347;-72
2023/07/17 02:49:03;;;;;;;;;;;;;;;-140.72;100.00;52573.50;5093406;28;19927;-71
2023/07/17 02:51:29;;;;;;;;;;;;;;;-140.72;100.00;52581.59;5073137;28;20385;-71
2023/07/17 02:53:54;;;;;;;;;;;;;;;-140.72;100.00;52597.84;5097299;28;19923;-71
2023/07/17 02:56:20;;;;;;;;;;;;;;;-140.72;100.00;52573.50;5092069;28;19916;-71
2023/07/17 02:58:48;;;;;;;;;;;;;;;-140.72;100.00;52555.22;5092071;28;19923;-72
2023/07/17 03:01:14;;;;;;;;;;;;;;;-140.72;100.00;52599.88;5095294;28;20019;-72
2023/07/17 03:03:39;;;;;;;;;;;;;;;-140.72;100.00;52589.72;5084851;28;20330;-71
2023/07/17 03:06:04;;;;;;;;;;;;;;;-140.72;100.00;52601.91;5096443;28;20347;-71
2023/07/17 03:08:29;;;;;;;;;;;;;;;-140.72;100.00;52597.84;5089888;28;19923;-72
2023/07/17 03:11:16;;;;;;;;;;;;;;;-140.72;100.00;52581.59;5099571;28;20065;-71
2023/07/17 03:13:41;;;;;;;;;;;;;;;-140.72;100.00;52569.44;5090556;28;19955;-71
2023/07/17 03:16:13;;;;;;;;;;;;;;;-140.72;100.00;52573.50;5089058;28;19928;-71
2023/07/17 03:18:38;;;;;;;;;;;;;;;-140.72;100.00;52561.31;5087878;28;20346;-71
2023/07/17 03:21:04;;;;;;;;;;;;;;;-140.72;100.00;52605.94;5094592;28;19968;-71
2023/07/17 03:23:29;;;;;;;;;;;;;;;-140.72;100.00;52599.88;5092466;28;20399;-71
2023/07/17 03:25:58;;;;;;;;;;;;;;;-140.72;100.00;52614.06;5072381;28;19967;-71
2023/07/17 03:28:23;;;;;;;;;;;;;;;-140.72;100.00;52591.75;5074494;28;19950;-71
2023/07/17 03:30:48;;;;;;;;;;;;;;;-140.72;100.00;52573.50;5065115;28;20411;-72
2023/07/17 03:33:13;;;;;;;;;;;;;;;-140.72;100.00;52593.78;5073797;28;19932;-72
2023/07/17 03:35:39;;;;;;;;;;;;;;;-140.72;100.00;52577.53;5073194;28;20405;-72
2023/07/17 03:38:04;;;;;;;;;;;;;;;-140.72;100.00;52593.78;5073919;28;19924;-71
2023/07/17 03:40:29;;;;;;;;;;;;;;;-140.72;100.00;52575.50;5071903;28;19920;-71
2023/07/17 03:42:54;;;;;;;;;;;;;;;-140.72;100.00;52573.50;5072284;28;19998;-71
2023/07/17 03:45:20;;;;;;;;;;;;;;;-140.72;100.00;52567.41;5067605;28;19920;-71
2023/07/17 03:47:45;;;;;;;;;;;;;;;-140.72;100.00;52620.16;5059478;28;19920;-71
2023/07/17 03:50:10;;;;;;;;;;;;;;;-140.72;100.00;52612.03;5067499;28;19935;-71
2023/07/17 03:52:36;;;;;;;;;;;;;;;-140.72;100.00;52601.91;5073510;28;20078;-71
2023/07/17 03:55:01;;;;;;;;;;;;;;;-140.72;100.00;52597.84;5070306;28;20408;-71
2023/07/17 03:57:34;;;;;;;;;;;;;;;-140.72;100.00;52567.41;5086639;28;20386;-71
2023/07/17 03:59:59;;;;;;;;;;;;;;;-140.72;100.00;52569.44;5102612;28;19920;-72
2023/07/17 04:02:24;;;;;;;;;;;;;;;-140.72;100.00;52575.50;5069091;28;20235;-72
2023/07/17 04:04:50;;;;;;;;;;;;;;;-140.72;100.00;52626.25;5054822;28;19917;-71
2023/07/17 04:07:15;;;;;;;;;;;;;;;-140.72;100.00;52585.66;5062538;28;19921;-71
2023/07/17 04:09:41;;;;;;;;;;;;;;;-140.72;100.00;52581.59;5074785;28;19917;-71
2023/07/17 04:12:06;;;;;;;;;;;;;;;-140.72;100.00;52614.06;5066678;28;19967;-72
2023/07/17 04:14:34;;;;;;;;;;;;;;;-140.72;100.00;52587.69;5074534;28;19964;-72
2023/07/17 04:16:59;;;;;;;;;;;;;;;-140.72;100.00;52591.75;5072973;28;19935;-71
2023/07/17 04:19:26;;;;;;;;;;;;;;;-140.72;100.00;52595.81;5062269;28;20366;-71
2023/07/17 04:21:55;;;;;;;;;;;;;;;-140.72;100.00;52603.94;5066163;28;19917;-72
2023/07/17 04:24:20;;;;;;;;;;;;;;;-140.72;100.00;52618.13;5066781;28;20358;-72
2023/07/17 04:26:46;;;;;;;;;;;;;;;-140.72;100.00;52622.19;5086647;28;19996;-71
2023/07/17 04:29:11;;;;;;;;;;;;;;;-140.72;100.00;52605.94;5092685;28;19916;-71
2023/07/17 04:31:36;;;;;;;;;;;;;;;-140.72;100.00;52573.50;5082144;28;20035;-75
2023/07/17 04:34:02;;;;;;;;;;;;;;;-140.72;100.00;52563.34;5091078;28;19916;-75
2023/07/17 04:36:27;;;;;;;;;;;;;;;-140.72;100.00;52581.59;5069830;28;19916;-74
2023/07/17 04:39:09;;;;;;;;;;;;;;;-140.72;100.00;52561.31;5073384;28;20003;-76
2023/07/17 04:41:34;;;;;;;;;;;;;;;-140.72;100.00;52534.94;5087761;28;20374;-73
2023/07/17 04:44:00;;;;;;;;;;;;;;;-140.72;100.00;52589.72;5077097;28;19963;-72
2023/07/17 04:46:25;;;;;;;;;;;;;;;-140.72;100.00;52577.53;5080704;28;19923;-72
2023/07/17 04:48:50;;;;;;;;;;;;;;;-140.72;100.00;52571.47;5083935;28;19920;-72
2023/07/17 04:51:15;;;;;;;;;;;;;;;-140.72;100.00;52618.13;5105107;27;19921;-72
2023/07/17 04:53:41;;;;;;;;;;;;;;;-140.72;100.00;52589.72;5097344;28;19966;-71
2023/07/17 04:56:06;;;;;;;;;;;;;;;-140.72;100.00;52642.47;5090758;28;20257;-72
2023/07/17 04:58:34;;;;;;;;;;;;;;;-140.72;100.00;52614.06;5067183;28;19920;-72
2023/07/17 05:01:00;;;;;;;;;;;;;;;-140.72;100.00;52607.97;5080322;28;19949;-72
2023/07/17 05:03:25;;;;;;;;;;;;;;;-140.72;100.00;52610.00;5078219;28;19981;-72
2023/07/17 05:05:50;;;;;;;;;;;;;;;-140.72;100.00;52569.44;5083274;28;19928;-73
2023/07/17 05:08:17;;;;;;;;;;;;;;;-140.72;100.00;52577.53;5097973;28;19923;-72
2023/07/17 05:10:42;;;;;;;;;;;;;;;-140.72;100.00;52599.88;5072945;28;20250;-73
2023/07/17 05:13:08;;;;;;;;;;;;;;;-140.72;100.00;52593.78;5092258;28;19916;-73
2023/07/17 05:15:33;;;;;;;;;;;;;;;-140.72;100.00;52607.97;5078674;28;19958;-72
2023/07/17 05:17:58;;;;;;;;;;;;;;;-140.72;100.00;52593.78;5094429;28;19999;-73
2023/07/17 05:20:24;;;;;;;;;;;;;;;-140.72;100.00;52601.91;5092156;28;20349;-73
2023/07/17 05:23:06;;;;;;;;;;;;;;;-140.72;100.00;52545.06;5085147;28;19923;-77
2023/07/17 05:25:31;;;;;;;;;;;;;;;-140.72;100.00;52593.78;5084770;28;19927;-73
2023/07/17 05:27:57;;;;;;;;;;;;;;;-140.72;100.00;52565.38;5096408;28;20342;-72
2023/07/17 05:30:22;;;;;;;;;;;;;;;-140.72;100.00;52599.88;5092373;28;20254;-72
2023/07/17 05:32:47;;;;;;;;;;;;;;;-140.72;100.00;52593.78;5093311;28;19928;-74
2023/07/17 05:35:12;;;;;;;;;;;;;;;-140.72;100.00;52559.28;5086775;28;19920;-74
2023/07/17 05:37:38;;;;;;;;;;;;;;;-140.72;100.00;52626.25;5078874;28;20361;-74
2023/07/17 05:40:05;;;;;;;;;;;;;;;-140.72;100.00;52567.41;5089710;28;19929;-71
2023/07/17 05:42:30;;;;;;;;;;;;;;;-140.72;100.00;52587.69;5088734;28;20104;-71
2023/07/17 05:44:55;;;;;;;;;;;;;;;-140.72;100.00;52603.94;5084295;28;19958;-72
2023/07/17 05:47:20;;;;;;;;;;;;;;;-140.72;100.00;52557.25;5087400;28;19927;-72
2023/07/17 05:49:46;;;;;;;;;;;;;;;-140.72;100.00;52597.84;5072890;28;19920;-72
2023/07/17 05:52:11;;;;;;;;;;;;;;;-140.72;100.00;52571.47;5083438;28;19916;-71
2023/07/17 05:54:36;;;;;;;;;;;;;;;-140.72;100.00;52571.47;5060181;28;20367;-72
2023/07/17 05:57:01;;;;;;;;;;;;;;;-140.72;100.00;52605.94;5087804;28;19920;-71
2023/07/17 05:59:26;;;;;;;;;;;;;;;-140.72;100.00;52573.50;5091637;28;19926;-72
2023/07/17 06:01:52;;;;;;;;;;;;;;;-140.72;100.00;52589.72;5089875;28;19928;-72
2023/07/17 06:04:17;;;;;;;;;;;;;;;-140.72;100.00;52577.53;5080314;28;19970;-72
2023/07/17 06:06:42;;;;;;;;;;;;;;;-140.72;100.00;52573.50;5088261;28;19939;-71
2023/07/17 06:09:07;;;;;;;;;;;;;;;-140.72;100.00;52569.44;5091231;28;19939;-71
2023/07/17 06:11:33;;;;;;;;;;;;;;;-140.72;100.00;52557.25;5082203;28;19920;-71
2023/07/17 06:13:58;;;;;;;;;;;;;;;-140.72;100.00;52557.25;5091800;28;20254;-71
2023/07/17 06:16:23;;;;;;;;;;;;;;;-140.72;100.00;52551.16;5077598;28;20297;-71
2023/07/17 06:19:01;;;;;;;;;;;;;;;-140.72;100.00;52549.13;5088430;28;19938;-73
2023/07/17 06:21:26;;;;;;;;;;;;;;;-140.72;100.00;52536.97;5091049;28;20415;-73
2023/07/17 06:24:12;;;;;;;;;;;;;;;-140.72;100.00;52553.19;5093893;28;19995;-77
2023/07/17 06:26:37;;;;;;;;;;;;;;;-140.72;100.00;52522.75;5086407;28;19928;-71
2023/07/17 06:29:03;;;;;;;;;;;;;;;-140.72;100.00;52534.94;5091143;28;19939;-72
2023/07/17 06:31:29;;;;;;;;;;;;;;;-140.72;100.00;52484.19;5081882;28;20326;-72
2023/07/17 06:34:08;;;;;;;;;;;;;;;-140.72;100.00;52512.59;5084536;28;19920;-72
2023/07/17 06:36:33;;;;;;;;;;;;;;;-140.72;100.00;52500.44;5086796;28;19924;-73
2023/07/17 06:39:00;;;;;;;;;;;;;;;-140.72;100.00;52500.44;5093471;28;19920;-72
2023/07/17 06:41:26;;;;;;;;;;;;;;;-140.72;100.00;52486.22;5092557;28;19924;-71
2023/07/17 06:43:51;;;;;;;;;;;;;;;-140.72;100.00;52490.28;5093606;28;20288;-72
2023/07/17 06:46:16;;;;;;;;;;;;;;;-140.72;100.00;52532.91;5089969;28;19920;-72
2023/07/17 06:48:41;;;;;;;;;;;;;;;-140.72;100.00;52524.78;5090945;28;20061;-72
2023/07/17 06:51:16;;;;;;;;;;;;;;;-140.72;100.00;52526.81;5094912;28;20059;-72
2023/07/17 06:53:42;;;;;;;;;;;;;;;-140.72;100.00;52484.19;5090055;28;19959;-72
2023/07/17 06:56:07;;;;;;;;;;;;;;;-140.72;100.00;52522.75;5079050;28;20437;-72
2023/07/17 06:58:32;;;;;;;;;;;;;;;-140.72;100.00;52526.81;5090475;28;19931;-72
2023/07/17 07:00:58;;;;;;;;;;;;;;;-140.72;100.00;52543.03;5089818;28;19916;-72
2023/07/17 07:03:24;;;;;;;;;;;;;;;-140.72;100.00;52502.47;5081012;28;19943;-73
2023/07/17 07:06:00;;;;;;;;;;;;;;;-140.72;91.35;52514.63;5088853;28;19935;-73
2023/07/17 07:08:26;;;;;;;;;;;;;;;-140.72;73.52;52494.34;5077641;28;20414;-72
2023/07/17 07:10:52;;;;;;;;;;;;;;;-140.72;64.96;52476.09;5083558;28;20381;-73
2023/07/17 07:13:18;;;;;;;;;;;;;;;-140.72;52.75;52480.16;5067016;28;19950;-72
2023/07/17 07:15:43;;;;;;;;;;;;;;;-140.72;38.95;52478.13;5080461;28;19927;-72
2023/07/17 07:18:08;;;;;;;;;;;;;;;-140.72;40.91;52512.59;5085249;28;19920;-73
2023/07/17 07:20:33;;;;;;;;;;;;;;;-140.72;8.14;52494.34;5091473;28;19995;-72
2023/07/17 07:22:59;;;;;;;;;;;;;;;-140.72;0.00;52484.19;5097725;28;20293;-72
2023/07/17 07:25:24;;;;;;;;;;;;;;;-140.72;0.00;52486.22;5097246;28;19920;-72
2023/07/17 07:27:49;;;;;;;;;;;;;;;-140.72;0.00;52480.16;5095300;28;19919;-72
2023/07/17 07:30:14;;;;;;;;;;;;;;;-140.72;0.00;52478.13;5096814;28;20018;-72
2023/07/17 07:32:46;;;;;;;;;;;;;;;-140.72;0.00;52504.50;5091639;28;19993;-72
2023/07/17 07:35:12;;;;;;;;;;;;;;;-140.72;0.00;52500.44;5084830;28;20007;-72
2023/07/17 07:37:37;;;;;;;;;;;;;;;-140.72;0.00;52492.31;5090302;28;20357;-72
2023/07/17 07:40:05;;;;;;;;;;;;;;;-140.72;0.00;52455.78;5093320;28;19920;-72
2023/07/17 07:42:31;;;;;;;;;;;;;;;-140.72;0.00;52490.28;5094871;28;20436;-72
2023/07/17 07:44:56;;;;;;;;;;;;;;;-140.72;0.00;52484.19;5088249;28;20012;-72
2023/07/17 07:47:22;;;;;;;;;;;;;;;-140.72;0.00;52492.31;5092270;28;19921;-72
2023/07/17 07:49:48;;;;;;;;;;;;;;;-140.72;0.00;52435.50;5088811;28;20334;-72
2023/07/17 07:52:13;;;;;;;;;;;;;;;-140.72;0.00;52427.38;5079526;28;19923;-73
2023/07/17 07:54:38;;;;;;;;;;;;;;;-140.72;0.00;52378.69;5093323;28;19934;-73
2023/07/17 07:57:04;;;;;;;;;;;;;;;-140.72;0.00;52453.75;5091179;28;19938;-73
2023/07/17 07:59:29;;;;;;;;;;;;;;;-140.72;0.00;52431.44;5086199;28;20292;-71
2023/07/17 08:01:54;;;;;;;;;;;;;;;-140.72;0.00;52411.16;5073383;28;20358;-71
2023/07/17 08:04:19;;;;;;;;;;;;;;;-140.72;0.00;52461.88;5088327;28;20407;-71
2023/07/17 08:06:44;;;;;;;;;;;;;;;-140.72;0.00;52455.78;5104947;28;19927;-72
2023/07/17 08:09:10;;;;;;;;;;;;;;;-140.72;0.00;52455.78;5089253;28;19924;-72
2023/07/17 08:11:35;;;;;;;;;;;;;;;-140.72;0.00;52470.00;5090881;28;20403;-72
2023/07/17 08:14:00;;;;;;;;;;;;;;;-140.72;0.00;52417.25;5071609;28;19920;-72
2023/07/17 08:16:26;;;;;;;;;;;;;;;-140.72;0.00;52476.09;5084932;28;19920;-71
2023/07/17 08:18:52;;;;;;;;;;;;;;;-140.72;0.00;52415.22;5087944;28;19916;-72
2023/07/17 08:21:17;;;;;;;;;;;;;;;-140.72;0.00;52398.97;5095188;28;20694;-72
2023/07/17 08:23:43;;;;;;;;;;;;;;;-140.72;0.00;52358.41;5094515;28;20318;-72
2023/07/17 08:26:10;;;;;;;;;;;;;;;-140.72;0.00;52413.19;5087585;28;19920;-72
2023/07/17 08:28:35;;;;;;;;;;;;;;;-140.72;0.00;52380.72;5081829;28;20400;-72
2023/07/17 08:31:00;;;;;;;;;;;;;;;-140.72;0.00;52427.38;5090208;28;19920;-72
2023/07/17 08:33:26;;;;;;;;;;;;;;;-140.72;0.00;52419.28;5085697;28;19984;-73
2023/07/17 08:35:51;;;;;;;;;;;;;;;-140.72;0.00;52427.38;5089259;28;19924;-73
2023/07/17 08:38:16;;;;;;;;;;;;;;;-140.72;0.00;52455.78;5086114;28;20242;-72
2023/07/17 08:40:48;;;;;;;;;;;;;;;-140.72;0.00;52492.31;5086715;28;19927;-74
2023/07/17 08:43:13;;;;;;;;;;;;;;;-140.72;0.00;52524.78;5093218;28;19920;-70
2023/07/17 08:45:38;;;;;;;;;;;;;;;-140.72;100.00;52591.75;5089175;28;19931;-71
2023/07/17 08:48:04;;;;;;;;;;;;;;;-140.72;100.00;52583.63;5086612;28;19963;-70
2023/07/17 08:50:30;;;;;;;;;;;;;;;-140.72;100.00;52528.84;5088954;28;19991;-71
2023/07/17 08:52:55;;;;;;;;;;;;;;;-140.72;100.00;52524.78;5093784;28;19986;-71
2023/07/17 08:55:21;;;;;;;;;;;;;;;-140.72;100.00;52478.13;5098920;28;19916;-70
2023/07/17 08:57:48;;;;;;;;;;;;;;;-140.72;100.00;52478.13;5092572;28;19999;-71
2023/07/17 09:00:15;;;;;;;;;;;;;;;-140.72;100.00;52472.03;5079936;28;19916;-71
2023/07/17 09:02:42;;;;;;;;;;;;;;;-140.72;100.00;52506.53;5076232;28;20242;-71
2023/07/17 09:05:07;;;;;;;;;;;;;;;-140.72;100.00;52500.44;5060947;28;19920;-70
2023/07/17 09:07:32;;;;;;;;;;;;;;;-140.72;100.00;52528.84;5092881;28;19923;-70
2023/07/17 09:10:17;;;;;;;;;;;;;;;-140.72;100.00;52553.19;5090086;28;19924;-71
2023/07/17 09:12:42;;;;;;;;;;;;;;;-140.72;100.00;52522.75;5074810;28;19928;-71
2023/07/17 09:15:12;;;;;;;;;;;;;;;-140.72;100.00;52532.91;5109753;28;19920;-70
2023/07/17 09:17:37;;;;;;;;;;;;;;;-140.72;100.00;52545.06;5092727;28;20562;-70
2023/07/17 09:20:08;;;;;;;;;;;;;;;-140.72;100.00;52463.91;5079902;28;20026;-70
2023/07/17 09:22:34;;;;;;;;;;;;;;;-140.72;100.00;52439.56;5082416;28;19920;-71
2023/07/17 09:25:00;;;;;;;;;;;;;;;-140.72;100.00;52390.84;5081867;28;19978;-73
2023/07/17 09:27:29;;;;;;;;;;;;;;;-140.72;100.00;52413.19;5085532;28;21641;-72
2023/07/17 09:29:54;;;;;;;;;;;;;;;-140.72;100.00;52504.50;5085273;28;19921;-71
2023/07/17 09:32:21;;;;;;;;;;;;;;;-140.72;100.00;52449.72;5081231;28;19923;-72
2023/07/17 09:34:51;;;;;;;;;;;;;;;-140.72;100.00;52396.94;5083434;28;20389;-72
2023/07/17 09:37:16;;;;;;;;;;;;;;;-140.72;79.71;52384.78;5081079;28;19920;-72
2023/07/17 09:39:41;;;;;;;;;;;;;;;-140.72;8.55;52307.66;5070334;28;20297;-74
2023/07/17 09:42:21;;;;;;;;;;;;;;;-140.72;0.00;52350.28;5082951;28;19920;-72
2023/07/17 09:44:47;;;;;;;;;;;;;;;-140.72;0.00;52346.22;5069303;28;19927;-73
2023/07/17 09:47:13;;;;;;;;;;;;;;;-140.72;0.00;52364.47;5083019;28;19920;-72
2023/07/17 09:49:38;;;;;;;;;;;;;;;-140.72;0.00;52263.03;5077435;28;20266;-72
2023/07/17 09:52:04;;;;;;;;;;;;;;;-140.72;0.00;52336.06;5096494;28;19920;-72
2023/07/17 09:54:29;;;;;;;;;;;;;;;-140.72;0.00;52433.47;5088005;28;20028;-72
2023/07/17 09:56:55;;;;;;;;;;;;;;;-140.72;0.00;52447.69;5078855;28;19920;-72
2023/07/17 09:59:21;;;;;;;;;;;;;;;-140.72;0.00;52380.72;5087775;28;19966;-72
2023/07/17 10:01:48;;;;;;;;;;;;;;;-140.72;0.00;52366.50;5066171;28;19920;-72
2023/07/17 10:04:16;;;;;;;;;;;;;;;-140.72;0.00;52445.66;5090831;28;19919;-72
2023/07/17 10:06:42;;;;;;;;;;;;;;;-140.72;0.00;52467.97;5067475;28;19920;-72
2023/07/17 10:09:09;;;;;;;;;;;;;;;-140.72;0.00;52447.69;5087032;28;20381;-72
2023/07/17 10:11:35;;;;;;;;;;;;;;;-140.72;0.00;52455.78;5095795;28;19920;-73
2023/07/17 10:14:01;;;;;;;;;;;;;;;-140.72;0.00;52453.75;5094906;28;19985;-72
2023/07/17 10:16:26;;;;;;;;;;;;;;;-140.72;9.81;52409.13;5077607;28;20471;-72
2023/07/17 10:18:55;;;;;;;;;;;;;;;-140.72;5.05;52451.72;5080012;28;19912;-72
2023/07/17 10:21:21;;;;;;;;;;;;;;;-140.72;21.70;52431.44;5089201;28;19924;-72
2023/07/17 10:23:47;;;;;;;;;;;;;;;-140.72;13.46;52409.13;5089247;28;20358;-72
2023/07/17 10:26:14;;;;;;;;;;;;;;;-140.72;0.00;52492.31;5089925;28;19944;-72
2023/07/17 10:28:40;;;;;;;;;;;;;;;-140.72;16.62;52504.50;5090280;28;19924;-71
2023/07/17 10:31:15;;;;;;;;;;;;;;;-140.72;100.00;52555.22;5090334;28;19920;-71
2023/07/17 10:33:40;;;;;;;;;;;;;;;-140.72;100.00;52587.69;5094534;28;20060;-72
2023/07/17 10:36:05;;;;;;;;;;;;;;;-140.72;100.00;52541.03;5096116;28;20288;-72
2023/07/17 10:38:34;;;;;;;;;;;;;;;-140.72;100.00;52530.88;5086438;28;19920;-71
2023/07/17 10:41:04;;;;;;;;;;;;;;;-140.72;100.00;52532.91;5086740;28;19920;-72
2023/07/17 10:43:29;;;;;;;;;;;;;;;-140.72;100.00;52496.38;5089837;28;20081;-71
2023/07/17 10:45:54;;;;;;;;;;;;;;;-140.72;100.00;52480.16;5074684;28;20408;-71
2023/07/17 10:48:24;;;;;;;;;;;;;;;-140.72;100.00;52407.09;5088259;28;19924;-72
2023/07/17 10:50:50;;;;;;;;;;;;;;;-140.72;100.00;52431.44;5075015;28;19927;-72
2023/07/17 10:53:16;;;;;;;;;;;;;;;-140.72;100.00;52435.50;5092123;28;20285;-72
2023/07/17 10:55:42;;;;;;;;;;;;;;;-140.72;100.00;52443.63;5092712;28;19931;-72
2023/07/17 10:58:07;;;;;;;;;;;;;;;-140.72;100.00;52427.38;5093035;28;19920;-71
2023/07/17 11:00:33;;;;;;;;;;;;;;;-140.72;100.00;52431.44;5088618;28;19939;-71
2023/07/17 11:02:59;;;;;;;;;;;;;;;-140.72;72.14;52386.81;5091205;28;20647;-71
2023/07/17 11:05:24;;;;;;;;;;;;;;;-140.72;61.71;52451.72;5095098;28;19927;-71
2023/07/17 11:07:49;;;;;;;;;;;;;;;-140.72;85.63;52449.72;5083936;28;20373;-71
2023/07/17 11:10:15;;;;;;;;;;;;;;;-140.72;85.91;52419.28;5092400;28;19937;-71
2023/07/17 11:12:40;;;;;;;;;;;;;;;-140.72;95.24;52386.81;5088423;28;19942;-71
2023/07/17 11:15:16;;;;;;;;;;;;;;;-140.72;0.00;52390.84;5085766;28;20003;-71
2023/07/17 11:17:41;;;;;;;;;;;;;;;-140.72;0.00;52293.47;5085350;28;19927;-71
2023/07/17 11:20:07;;;;;;;;;;;;;;;-140.72;0.00;52334.03;5087526;28;19916;-71
2023/07/17 11:22:32;;;;;;;;;;;;;;;-140.72;0.00;52356.38;5091981;28;20370;-71
2023/07/17 11:24:57;;;;;;;;;;;;;;;-140.72;0.00;52315.78;5089802;28;20593;-72
2023/07/17 11:27:23;;;;;;;;;;;;;;;-140.72;0.00;52242.75;5083386;28;19942;-75
2023/07/17 11:29:50;;;;;;;;;;;;;;;-140.72;0.00;52307.66;5077365;28;19950;-71
2023/07/17 11:32:17;;;;;;;;;;;;;;;-140.72;0.00;52252.88;5076744;28;19942;-72
2023/07/17 11:34:42;;;;;;;;;;;;;;;-140.72;0.00;52183.91;5086371;28;19959;-72
2023/07/17 11:37:08;;;;;;;;;;;;;;;-140.72;0.00;52175.78;5099547;28;20084;-72
2023/07/17 11:39:33;;;;;;;;;;;;;;;-140.72;0.00;52129.13;5076747;28;20002;-72
2023/07/17 11:41:59;;;;;;;;;;;;;;;-140.72;0.00;52204.19;5092082;28;19980;-72
2023/07/17 11:44:29;;;;;;;;;;;;;;;-140.72;0.00;52301.59;5073096;28;20030;-71
2023/07/17 11:46:58;;;;;;;;;;;;;;;-140.72;0.00;52338.09;5083592;28;20019;-71
2023/07/17 11:49:24;;;;;;;;;;;;;;;-140.72;0.00;52368.53;5107892;27;19927;-71
2023/07/17 11:51:49;;;;;;;;;;;;;;;-140.72;0.00;52378.69;5096953;28;19920;-71
2023/07/17 11:54:15;;;;;;;;;;;;;;;-140.72;0.00;52358.41;5072822;28;19920;-71
2023/07/17 11:56:41;;;;;;;;;;;;;;;-140.72;0.00;52384.78;5087481;28;20026;-72
2023/07/17 11:59:15;;;;;;;;;;;;;;;-140.72;0.00;52378.69;5069184;28;20027;-71
2023/07/17 12:01:40;;;;;;;;;;;;;;;-140.72;0.00;52435.50;5080104;28;19969;-72
2023/07/17 12:04:21;;;;;;;;;;;;;;;-140.72;0.00;52455.78;5083473;28;19927;-72
2023/07/17 12:06:47;;;;;;;;;;;;;;;-140.72;0.00;52467.97;5082469;28;19920;-72
2023/07/17 12:09:12;;;;;;;;;;;;;;;-140.72;0.00;52455.78;5072450;28;19924;-72
2023/07/17 12:11:38;;;;;;;;;;;;;;;-140.72;0.00;52504.50;5090448;28;19949;-72
2023/07/17 12:14:03;;;;;;;;;;;;;;;-140.72;0.00;52447.69;5085936;28;20246;-73
2023/07/17 12:16:28;;;;;;;;;;;;;;;-140.72;0.00;52327.97;5100624;28;19923;-72
2023/07/17 12:18:54;;;;;;;;;;;;;;;-140.72;0.00;52187.97;5091322;28;20015;-73
2023/07/17 12:21:19;;;;;;;;;;;;;;;-140.72;0.00;52202.16;5093676;28;19927;-73